createdAt,value
2022-11-29T00:03:52.579Z,18.32
2022-11-29T00:08:56.047Z,18.34
2022-11-29T00:13:58.199Z,18.35
2022-11-29T00:19:00.544Z,18.35
2022-11-29T00:24:04.071Z,18.33
2022-11-29T00:29:06.532Z,18.32
2022-11-29T00:34:11.123Z,18.33
2022-11-29T00:39:13.557Z,18.32
2022-11-29T00:44:20.081Z,18.32
2022-11-29T00:49:22.844Z,18.32
2022-11-29T00:54:24.918Z,18.33
2022-11-29T00:59:26.961Z,18.31
2022-11-29T01:04:29.026Z,18.30
2022-11-29T01:09:31.241Z,18.28
2022-11-29T01:14:33.241Z,18.28
2022-11-29T01:19:35.433Z,18.29
2022-11-29T01:24:37.545Z,18.30
2022-11-29T01:29:39.666Z,18.29
2022-11-29T01:34:42.086Z,18.29
2022-11-29T01:39:44.598Z,18.33
2022-11-29T01:44:46.848Z,18.30
2022-11-29T01:49:50.712Z,18.31
2022-11-29T01:54:58.223Z,18.29
2022-11-29T02:00:13.777Z,18.27
2022-11-29T02:05:18.821Z,18.28
2022-11-29T02:10:45.904Z,18.29
2022-11-29T02:16:14.347Z,18.28
2022-11-29T02:21:33.613Z,18.26
2022-11-29T02:26:55.285Z,18.28
2022-11-29T02:32:30.915Z,18.27
2022-11-29T02:37:57.548Z,18.28
2022-11-29T02:43:08.742Z,18.29
2022-11-29T02:48:48.022Z,18.26
2022-11-29T02:54:06.909Z,18.28
2022-11-29T02:59:41.743Z,18.27
2022-11-29T03:04:48.841Z,18.28
2022-11-29T03:10:08.612Z,18.27
2022-11-29T03:15:13.225Z,18.28
2022-11-29T03:20:33.269Z,18.26
2022-11-29T03:25:52.039Z,18.26
2022-11-29T03:31:10.206Z,18.26
2022-11-29T03:36:36.173Z,18.27
2022-11-29T03:41:47.168Z,18.26
2022-11-29T03:47:03.678Z,18.25
2022-11-29T03:52:26.854Z,18.28
2022-11-29T03:57:51.369Z,18.28
2022-11-29T04:03:19.265Z,18.28
2022-11-29T04:08:49.970Z,18.29
2022-11-29T04:14:21.075Z,18.30
2022-11-29T04:19:58.541Z,18.23
2022-11-29T04:25:37.993Z,18.21
2022-11-29T04:31:30.771Z,18.24
2022-11-29T04:36:38.933Z,18.25
2022-11-29T04:42:20.415Z,18.23
2022-11-29T04:47:40.414Z,18.24
2022-11-29T04:53:04.009Z,18.22
2022-11-29T04:58:08.756Z,18.21
2022-11-29T05:03:31.175Z,18.22
2022-11-29T05:08:45.372Z,18.19
2022-11-29T05:13:59.174Z,18.23
2022-11-29T05:19:34.885Z,18.22
2022-11-29T05:24:43.264Z,18.23
2022-11-29T05:29:48.892Z,18.23
2022-11-29T05:34:59.764Z,18.24
2022-11-29T05:40:31.051Z,18.25
2022-11-29T05:45:33.081Z,18.24
2022-11-29T05:50:38.114Z,18.25
2022-11-29T05:56:03.289Z,18.23
2022-11-29T06:01:32.772Z,18.18
2022-11-29T06:06:41.109Z,18.18
2022-11-29T06:11:49.144Z,18.22
2022-11-29T06:17:42.349Z,18.22
2022-11-29T06:22:59.865Z,18.20
2022-11-29T06:28:20.480Z,18.20
2022-11-29T06:33:35.607Z,18.20
2022-11-29T06:38:37.995Z,18.22
2022-11-29T06:43:40.497Z,18.23
2022-11-29T06:48:51.674Z,18.24
2022-11-29T06:54:23.198Z,18.21
2022-11-29T06:59:28.240Z,18.23
2022-11-29T07:04:45.910Z,18.22
2022-11-29T07:09:51.669Z,18.22
2022-11-29T07:14:54.138Z,18.21
2022-11-29T07:20:14.985Z,18.22
2022-11-29T07:25:42.993Z,18.19
2022-11-29T07:31:00.181Z,18.18
2022-11-29T07:36:24.757Z,18.19
2022-11-29T07:41:46.649Z,18.17
2022-11-29T07:46:48.812Z,18.16
2022-11-29T07:51:50.993Z,18.17
2022-11-29T07:56:53.096Z,18.18
2022-11-29T08:01:55.978Z,18.18
2022-11-29T08:06:59.777Z,18.23
2022-11-29T08:12:01.839Z,18.22
2022-11-29T08:17:04.334Z,18.21
2022-11-29T08:22:06.364Z,18.21
2022-11-29T08:27:08.395Z,18.19
2022-11-29T08:32:10.563Z,18.19
2022-11-29T08:37:12.774Z,18.19
2022-11-29T08:42:14.997Z,18.19
2022-11-29T08:47:35.454Z,18.18
2022-11-29T08:52:58.577Z,18.18
2022-11-29T08:58:03.264Z,18.17
2022-11-29T09:03:25.478Z,18.19
2022-11-29T09:08:27.574Z,18.21
2022-11-29T09:13:29.526Z,18.21
2022-11-29T09:18:31.599Z,18.20
2022-11-29T09:23:33.698Z,18.21
2022-11-29T09:28:36.064Z,18.18
2022-11-29T09:33:39.850Z,18.19
2022-11-29T09:38:42.143Z,18.14
2022-11-29T09:43:46.812Z,18.14
2022-11-29T09:49:25.579Z,18.17
2022-11-29T09:54:30.289Z,18.20
2022-11-29T09:59:41.294Z,18.19
2022-11-29T10:04:52.815Z,18.21
2022-11-29T10:10:08.840Z,18.17
2022-11-29T10:15:17.992Z,18.15
2022-11-29T10:20:26.473Z,18.16
2022-11-29T10:25:37.882Z,18.17
2022-11-29T10:30:41.444Z,18.17
2022-11-29T10:35:44.767Z,18.17
2022-11-29T10:40:51.225Z,18.15
2022-11-29T10:45:56.417Z,18.15
2022-11-29T10:50:58.798Z,18.15
2022-11-29T10:56:29.670Z,18.15
2022-11-29T11:01:34.102Z,18.17
2022-11-29T11:06:55.832Z,18.15
2022-11-29T11:12:01.014Z,18.16
2022-11-29T11:17:27.649Z,18.15
2022-11-29T11:22:32.706Z,18.14
2022-11-29T11:27:40.032Z,18.15
2022-11-29T11:33:17.087Z,18.15
2022-11-29T11:38:19.053Z,18.16
2022-11-29T11:43:22.060Z,18.15
2022-11-29T11:48:24.484Z,18.14
2022-11-29T11:53:34.059Z,18.14
2022-11-29T11:58:50.815Z,18.14
2022-11-29T12:04:14.172Z,18.15
2022-11-29T12:09:25.543Z,18.14
2022-11-29T12:14:54.694Z,18.15
2022-11-29T12:20:17.879Z,18.14
2022-11-29T12:25:27.365Z,18.15
2022-11-29T12:30:30.219Z,18.16
2022-11-29T12:36:07.373Z,18.14
2022-11-29T12:41:37.251Z,18.16
2022-11-29T12:46:40.395Z,18.16
2022-11-29T12:51:51.494Z,18.18
2022-11-29T12:57:22.977Z,18.16
2022-11-29T13:03:03.667Z,18.16
2022-11-29T13:08:29.774Z,18.16
2022-11-29T13:13:49.208Z,18.15
2022-11-29T13:18:57.767Z,18.16
2022-11-29T13:24:31.069Z,18.14
2022-11-29T13:29:34.471Z,18.17
2022-11-29T13:34:42.261Z,18.15
2022-11-29T13:39:58.601Z,18.16
2022-11-29T13:45:10.301Z,18.16
2022-11-29T13:50:30.943Z,18.18
2022-11-29T13:55:34.414Z,18.19
2022-11-29T14:00:50.412Z,18.17
2022-11-29T14:06:13.619Z,18.19
2022-11-29T14:11:15.688Z,18.19
2022-11-29T14:16:54.750Z,18.18
2022-11-29T14:22:02.751Z,18.20
2022-11-29T14:27:10.485Z,18.19
2022-11-29T14:32:35.529Z,18.22
2022-11-29T14:37:50.167Z,18.23
2022-11-29T14:42:53.123Z,18.24
2022-11-29T14:47:55.916Z,18.24
2022-11-29T14:52:58.700Z,18.26
2022-11-29T14:58:08.640Z,18.26
2022-11-29T15:03:24.650Z,18.26
2022-11-29T15:08:26.989Z,18.28
2022-11-29T15:13:34.688Z,18.29
2022-11-29T15:18:55.739Z,18.28
2022-11-29T15:24:03.097Z,18.29
2022-11-29T15:29:19.931Z,18.29
2022-11-29T15:34:33.931Z,18.28
2022-11-29T15:39:37.703Z,18.30
2022-11-29T15:44:47.517Z,18.26
2022-11-29T15:49:54.205Z,18.24
2022-11-29T15:55:03.268Z,18.26
2022-11-29T16:00:12.521Z,18.31
2022-11-29T16:05:16.850Z,18.31
2022-11-29T16:10:22.232Z,18.28
2022-11-29T16:15:30.336Z,18.31
2022-11-29T16:20:32.667Z,18.28
2022-11-29T16:25:47.949Z,18.28
2022-11-29T16:30:50.040Z,18.27
2022-11-29T16:36:02.892Z,18.27
2022-11-29T16:41:21.379Z,18.27
2022-11-29T16:46:25.795Z,18.26
2022-11-29T16:51:48.064Z,18.26
2022-11-29T16:56:52.340Z,18.27
2022-11-29T17:01:54.589Z,18.28
2022-11-29T17:06:57.632Z,18.27
2022-11-29T17:12:00.331Z,18.29
2022-11-29T17:17:02.570Z,18.29
2022-11-29T17:22:04.682Z,18.29
2022-11-29T17:27:07.167Z,18.29
2022-11-29T17:32:09.197Z,18.29
2022-11-29T17:37:11.397Z,18.29
2022-11-29T17:42:13.476Z,18.26
2022-11-29T17:47:15.671Z,18.26
2022-11-29T17:52:17.788Z,18.23
2022-11-29T17:57:20.103Z,18.21
2022-11-29T18:02:22.232Z,18.22
2022-11-29T18:07:24.467Z,18.18
2022-11-29T18:12:26.529Z,18.21
2022-11-29T18:17:28.605Z,18.22
2022-11-29T18:22:30.608Z,18.22
2022-11-29T18:27:32.631Z,18.19
2022-11-29T18:32:34.732Z,18.23
2022-11-29T18:38:12.880Z,18.25
2022-11-29T18:42:58.963Z,18.23
2022-11-29T18:48:00.991Z,18.20
2022-11-29T18:53:03.009Z,18.16
2022-11-29T18:58:06.719Z,18.17
2022-11-29T19:03:08.665Z,18.22
2022-11-29T19:08:10.645Z,18.19
2022-11-29T19:13:12.736Z,18.16
2022-11-29T19:18:14.826Z,18.13
2022-11-29T19:23:16.828Z,18.13
2022-11-29T19:28:19.100Z,18.15
2022-11-29T19:33:21.086Z,18.17
2022-11-29T19:38:23.172Z,18.16
2022-11-29T19:43:25.252Z,18.11
2022-11-29T19:48:27.316Z,18.11
2022-11-29T19:53:29.576Z,18.12
2022-11-29T19:58:32.689Z,18.14
2022-11-29T20:03:35.099Z,18.18
2022-11-29T20:08:37.857Z,18.15
2022-11-29T20:13:41.362Z,18.11
2022-11-29T20:18:50.426Z,18.09
2022-11-29T20:24:05.438Z,18.08
2022-11-29T20:29:08.953Z,18.09
2022-11-29T20:34:13.361Z,18.13
2022-11-29T20:39:47.479Z,18.13
2022-11-29T20:45:01.644Z,18.14
2022-11-29T20:50:03.999Z,18.08
2022-11-29T20:55:06.455Z,18.03
2022-11-29T21:00:11.695Z,18.05
2022-11-29T21:05:13.720Z,18.08
2022-11-29T21:10:15.991Z,18.11
2022-11-29T21:15:18.455Z,18.10
2022-11-29T21:20:26.085Z,18.09
2022-11-29T21:25:36.687Z,18.06
2022-11-29T21:30:39.772Z,18.04
2022-11-29T21:35:41.898Z,18.06
2022-11-29T21:40:43.856Z,18.03
2022-11-29T21:45:49.006Z,18.04
2022-11-29T21:50:50.941Z,18.04
2022-11-29T21:56:00.356Z,18.02
2022-11-29T22:01:13.620Z,17.99
2022-11-29T22:06:20.619Z,17.96
2022-11-29T22:11:35.559Z,17.96
2022-11-29T22:16:37.668Z,17.97
2022-11-29T22:21:43.917Z,17.95
2022-11-29T22:26:46.871Z,17.97
2022-11-29T22:31:52.180Z,17.95
2022-11-29T22:36:54.485Z,17.93
2022-11-29T22:41:57.774Z,17.91
2022-11-29T22:46:59.911Z,17.93
2022-11-29T22:52:02.002Z,17.93
2022-11-29T22:57:04.131Z,17.90
2022-11-29T23:02:06.167Z,17.93
2022-11-29T23:07:08.239Z,17.97
2022-11-29T23:12:10.851Z,17.96
2022-11-29T23:17:12.929Z,17.92
2022-11-29T23:22:15.113Z,17.92
2022-11-29T23:27:17.423Z,17.89
2022-11-29T23:32:19.525Z,17.90
2022-11-29T23:37:21.575Z,17.90
2022-11-29T23:42:23.964Z,17.91
2022-11-29T23:47:26.244Z,17.89
2022-11-29T23:52:28.351Z,17.90
2022-11-29T23:57:31.306Z,17.91
